Time;durP1;ratioP1;P1;durP2;ratioP2;P2;SDS_P1;SDS_P2;PMS_P1;PMS_P2;Temp;Humidity;BMP_temperature;BMP_pressure;BME280_temperature;BME280_humidity;BME280_pressure;Samples;Min_cycle;Max_cycle;Signal;HPM_P1;HPM_P2
2021/11/25 00:00:12;;;;;;;18.15;11.60;;;2.10;99.90;;;;;;2009669;71;21090;-74
2021/11/25 00:02:39;;;;;;;20.00;12.50;;;2.20;99.90;;;;;;2008815;70;21165;-75
2021/11/25 00:05:05;;;;;;;20.05;12.10;;;2.20;99.90;;;;;;2005759;70;21104;-75
2021/11/25 00:07:31;;;;;;;17.92;12.37;;;2.20;99.90;;;;;;2006079;70;21100;-75
2021/11/25 00:09:57;;;;;;;19.10;12.00;;;2.20;99.90;;;;;;2012803;70;21133;-76
2021/11/25 00:12:23;;;;;;;20.23;13.32;;;2.20;99.90;;;;;;2009400;70;21484;-74
2021/11/25 00:14:49;;;;;;;18.90;12.55;;;2.10;99.90;;;;;;2009844;70;21517;-75
2021/11/25 00:17:15;;;;;;;22.90;12.55;;;2.10;99.90;;;;;;2002372;70;21436;-74
2021/11/25 00:19:41;;;;;;;22.15;13.45;;;2.20;99.90;;;;;;2005777;70;21452;-74
2021/11/25 00:22:07;;;;;;;20.60;13.50;;;2.20;99.90;;;;;;2008334;70;21113;-74
2021/11/25 00:24:34;;;;;;;19.80;13.30;;;2.20;99.90;;;;;;2006586;70;21054;-74
2021/11/25 00:27:00;;;;;;;21.57;13.80;;;2.20;99.90;;;;;;2015665;70;21186;-76
2021/11/25 00:29:26;;;;;;;16.02;11.28;;;2.20;99.90;;;;;;2009661;70;21024;-75
2021/11/25 00:31:52;;;;;;;19.67;12.07;;;2.20;99.90;;;;;;2009592;71;21110;-76
2021/11/25 00:34:18;;;;;;;21.33;12.05;;;2.20;99.90;;;;;;2002822;70;21034;-74
2021/11/25 00:36:44;;;;;;;19.80;12.10;;;2.20;99.90;;;;;;2009233;70;21035;-75
2021/11/25 00:39:10;;;;;;;17.45;11.00;;;2.20;99.90;;;;;;2012311;70;21040;-74
2021/11/25 00:41:36;;;;;;;18.05;11.48;;;2.20;99.90;;;;;;2009718;70;21043;-75
2021/11/25 00:44:03;;;;;;;20.40;12.35;;;2.20;99.90;;;;;;2013491;70;21051;-74
2021/11/25 00:46:29;;;;;;;24.60;13.18;;;2.20;99.90;;;;;;2009478;70;21044;-75
2021/11/25 00:48:55;;;;;;;18.40;12.10;;;2.20;99.90;;;;;;2012487;70;21115;-74
2021/11/25 00:51:21;;;;;;;16.73;12.00;;;2.20;99.90;;;;;;2006043;70;21130;-75
2021/11/25 00:53:47;;;;;;;18.75;12.43;;;2.20;99.90;;;;;;2009196;70;21117;-74
2021/11/25 00:56:13;;;;;;;20.82;12.43;;;2.20;99.90;;;;;;2002830;70;21050;-75
2021/11/25 00:58:39;;;;;;;16.10;12.53;;;2.30;99.90;;;;;;2016128;70;21499;-74
2021/11/25 01:01:05;;;;;;;23.67;12.63;;;2.30;99.90;;;;;;2005654;70;21467;-75
2021/11/25 01:03:32;;;;;;;24.37;12.70;;;2.30;99.90;;;;;;2003533;70;21456;-75
2021/11/25 01:05:58;;;;;;;22.90;12.93;;;2.30;99.90;;;;;;2002263;70;21490;-74
2021/11/25 01:08:24;;;;;;;21.17;12.75;;;2.30;99.90;;;;;;2011032;70;21084;-74
2021/11/25 01:10:50;;;;;;;19.12;13.55;;;2.30;99.90;;;;;;2006038;70;21206;-74
2021/11/25 01:13:16;;;;;;;21.05;13.30;;;2.20;99.90;;;;;;2006125;70;21190;-75
2021/11/25 01:15:42;;;;;;;15.88;11.60;;;2.20;99.90;;;;;;2015800;70;21113;-75
2021/11/25 01:18:08;;;;;;;19.42;12.55;;;2.20;99.90;;;;;;2019059;70;21212;-75
2021/11/25 01:20:34;;;;;;;19.70;12.20;;;2.20;99.90;;;;;;2006123;70;21085;-74
2021/11/25 01:23:00;;;;;;;21.15;12.53;;;2.20;99.90;;;;;;2006234;70;21035;-74
2021/11/25 01:25:27;;;;;;;19.25;12.80;;;2.20;99.90;;;;;;2027644;71;21012;-75
2021/11/25 01:27:53;;;;;;;19.55;12.60;;;2.20;99.90;;;;;;2015003;71;21028;-74
2021/11/25 01:30:19;;;;;;;20.02;12.47;;;2.20;99.90;;;;;;2004667;70;21052;-75
2021/11/25 01:32:45;;;;;;;27.50;14.68;;;2.10;99.90;;;;;;2006766;70;21044;-74
2021/11/25 01:35:11;;;;;;;22.17;13.00;;;2.10;99.90;;;;;;2009541;71;21109;-74
2021/11/25 01:37:37;;;;;;;19.82;12.33;;;2.10;99.90;;;;;;2006136;70;21028;-74
2021/11/25 01:40:03;;;;;;;15.83;12.15;;;2.20;99.90;;;;;;2009308;70;21086;-74
2021/11/25 01:42:29;;;;;;;24.43;14.20;;;2.20;99.90;;;;;;2012604;70;21089;-75
2021/11/25 01:44:56;;;;;;;18.95;13.22;;;2.20;99.90;;;;;;2013577;70;21160;-75
2021/11/25 01:47:22;;;;;;;19.00;13.40;;;2.20;99.90;;;;;;2012775;70;21444;-75
2021/11/25 01:49:48;;;;;;;21.00;12.88;;;2.20;99.90;;;;;;2000986;70;21456;-74
2021/11/25 01:52:14;;;;;;;22.42;13.90;;;2.20;99.90;;;;;;2007663;70;21442;-74
2021/11/25 01:54:40;;;;;;;40.17;12.30;;;2.20;99.90;;;;;;2020790;70;21047;-74
2021/11/25 01:57:06;;;;;;;17.80;11.38;;;2.20;99.90;;;;;;2013047;70;21044;-74
2021/11/25 01:59:33;;;;;;;22.75;13.25;;;2.20;99.90;;;;;;2008979;70;21020;-74
2021/11/25 02:01:59;;;;;;;18.70;12.50;;;2.30;99.90;;;;;;2010101;70;21036;-75
2021/11/25 02:04:26;;;;;;;20.37;13.55;;;2.30;99.90;;;;;;2006258;70;21107;-74
2021/11/25 02:06:53;;;;;;;19.80;12.85;;;2.30;99.90;;;;;;2009574;71;21097;-74
2021/11/25 02:09:20;;;;;;;23.77;13.55;;;2.40;99.90;;;;;;2009618;70;21063;-76
2021/11/25 02:11:46;;;;;;;21.85;12.20;;;2.40;99.90;;;;;;1998567;70;21125;-75
2021/11/25 02:14:12;;;;;;;16.52;11.50;;;2.30;99.90;;;;;;2007564;70;21043;-74
2021/11/25 02:16:39;;;;;;;18.92;12.23;;;2.40;99.90;;;;;;2007958;70;21112;-74
2021/11/25 02:19:05;;;;;;;24.15;13.43;;;2.40;99.90;;;;;;2012093;71;21180;-75
2021/11/25 02:21:32;;;;;;;20.85;12.25;;;2.40;99.90;;;;;;2003917;70;21104;-73
2021/11/25 02:23:58;;;;;;;19.12;13.20;;;2.50;99.90;;;;;;2007552;70;21031;-74
2021/11/25 02:26:24;;;;;;;26.27;13.78;;;2.30;99.90;;;;;;2003110;70;21249;-74
2021/11/25 02:28:50;;;;;;;18.65;13.00;;;2.30;99.90;;;;;;2006316;70;21206;-74
2021/11/25 02:31:16;;;;;;;20.43;12.33;;;2.30;99.90;;;;;;2011424;70;21080;-74
2021/11/25 02:33:42;;;;;;;19.82;12.35;;;2.40;99.90;;;;;;2009636;71;21047;-74
2021/11/25 02:36:08;;;;;;;17.52;12.05;;;2.40;99.90;;;;;;2006283;70;21119;-74
2021/11/25 02:38:34;;;;;;;22.13;12.18;;;2.50;99.90;;;;;;2012061;70;21145;-74
2021/11/25 02:41:01;;;;;;;17.35;12.45;;;2.50;99.90;;;;;;2008933;70;21545;-74
2021/11/25 02:43:27;;;;;;;16.70;11.83;;;2.50;99.90;;;;;;2006161;70;21528;-74
2021/11/25 02:45:53;;;;;;;19.60;13.00;;;2.40;99.90;;;;;;2008447;70;21048;-74
2021/11/25 02:48:19;;;;;;;21.23;13.18;;;2.40;99.90;;;;;;2009491;70;21044;-74
2021/11/25 02:50:45;;;;;;;22.73;13.32;;;2.30;99.90;;;;;;2009677;70;21083;-73
2021/11/25 02:53:11;;;;;;;23.60;13.68;;;2.40;99.90;;;;;;2015998;70;21043;-75
2021/11/25 02:55:37;;;;;;;19.57;12.13;;;2.30;99.90;;;;;;2009780;70;21060;-74
2021/11/25 02:58:04;;;;;;;18.52;12.15;;;2.30;99.90;;;;;;2002454;70;21484;-74
2021/11/25 03:00:30;;;;;;;17.12;11.83;;;2.40;99.90;;;;;;2009622;70;21429;-74
2021/11/25 03:02:56;;;;;;;20.02;12.35;;;2.60;99.90;;;;;;2009680;71;21008;-74
2021/11/25 03:05:22;;;;;;;18.83;11.90;;;2.70;99.90;;;;;;2009248;70;21470;-74
2021/11/25 03:07:48;;;;;;;19.62;12.82;;;2.70;99.90;;;;;;2016889;71;21039;-74
2021/11/25 03:10:14;;;;;;;20.48;12.58;;;2.70;99.90;;;;;;2009709;70;21048;-74
2021/11/25 03:12:40;;;;;;;22.48;13.43;;;2.60;99.90;;;;;;2020500;70;21076;-74
2021/11/25 03:15:06;;;;;;;23.45;13.43;;;2.60;99.90;;;;;;2012203;70;21016;-75
2021/11/25 03:17:33;;;;;;;18.85;12.82;;;2.60;99.90;;;;;;2009709;70;21028;-75
2021/11/25 03:19:59;;;;;;;21.10;12.98;;;2.50;99.90;;;;;;2009762;70;21117;-74
2021/11/25 03:22:25;;;;;;;21.48;13.93;;;2.50;99.90;;;;;;2009857;71;21032;-75
2021/11/25 03:24:51;;;;;;;18.82;12.33;;;2.40;99.90;;;;;;2009726;70;20992;-75
2021/11/25 03:27:17;;;;;;;18.98;12.47;;;2.40;99.90;;;;;;2006917;70;21035;-75
2021/11/25 03:29:43;;;;;;;22.98;13.98;;;2.40;99.90;;;;;;2011874;70;21227;-75
2021/11/25 03:32:09;;;;;;;20.35;13.38;;;2.40;99.90;;;;;;2008101;70;21031;-74
2021/11/25 03:34:35;;;;;;;18.87;12.88;;;2.40;99.90;;;;;;2006992;70;21099;-75
2021/11/25 03:37:01;;;;;;;21.00;14.63;;;2.40;99.90;;;;;;2007443;70;21012;-74
2021/11/25 03:39:28;;;;;;;24.23;14.40;;;2.40;99.90;;;;;;2007501;70;21119;-75
2021/11/25 03:41:54;;;;;;;24.90;13.98;;;2.30;99.90;;;;;;2009328;70;21090;-76
2021/11/25 03:44:20;;;;;;;21.95;14.33;;;2.20;99.90;;;;;;2014066;70;21525;-75
2021/11/25 03:46:46;;;;;;;16.52;12.35;;;2.20;99.90;;;;;;2013549;70;21486;-75
2021/11/25 03:49:12;;;;;;;20.62;13.35;;;2.30;99.90;;;;;;2010004;71;21431;-75
2021/11/25 03:51:38;;;;;;;21.40;12.93;;;2.40;99.90;;;;;;2009653;71;21509;-75
2021/11/25 03:54:05;;;;;;;24.30;12.82;;;2.50;99.90;;;;;;2006370;70;21046;-75
2021/11/25 03:56:31;;;;;;;26.93;13.65;;;2.60;99.90;;;;;;2016328;71;21051;-76
2021/11/25 03:58:57;;;;;;;18.75;14.00;;;2.60;99.90;;;;;;1998687;70;21043;-75
2021/11/25 04:01:23;;;;;;;20.20;13.62;;;2.60;99.90;;;;;;2009659;70;21032;-75
2021/11/25 04:03:49;;;;;;;19.32;13.13;;;2.50;99.90;;;;;;2009741;71;21048;-75
2021/11/25 04:06:16;;;;;;;22.10;13.55;;;2.50;99.90;;;;;;2007862;70;21533;-74
2021/11/25 04:08:42;;;;;;;17.12;12.70;;;2.40;99.90;;;;;;2006038;70;21569;-75
2021/11/25 04:11:08;;;;;;;18.40;13.45;;;2.50;99.90;;;;;;2014388;71;21436;-75
2021/11/25 04:13:34;;;;;;;21.20;14.85;;;2.50;99.90;;;;;;2009631;70;21425;-74
2021/11/25 04:16:00;;;;;;;21.12;15.35;;;2.50;99.90;;;;;;2007057;70;21078;-75
2021/11/25 04:18:26;;;;;;;18.77;14.00;;;2.40;99.90;;;;;;2006125;70;21116;-74
2021/11/25 04:20:52;;;;;;;18.00;13.43;;;2.40;99.90;;;;;;1997489;70;21255;-75
2021/11/25 04:23:19;;;;;;;21.17;13.98;;;2.40;99.90;;;;;;2007587;70;21036;-74
2021/11/25 04:25:45;;;;;;;20.40;14.10;;;2.60;99.90;;;;;;2011784;70;21055;-75
2021/11/25 04:28:11;;;;;;;19.77;13.20;;;2.60;99.90;;;;;;2002553;70;21044;-74
2021/11/25 04:30:51;;;;;;;19.32;13.32;;;2.70;99.90;;;;;;2009765;71;21441;-74
2021/11/25 04:35:49;;;;;;;22.07;13.80;;;2.50;99.90;;;;;;2009617;70;21118;-75
2021/11/25 04:38:20;;;;;;;22.30;13.85;;;2.60;99.90;;;;;;2002839;70;21106;-74
2021/11/25 04:40:46;;;;;;;21.15;12.75;;;2.60;99.90;;;;;;1996640;70;21516;-76
2021/11/25 04:43:13;;;;;;;18.05;11.97;;;2.60;99.90;;;;;;2009971;70;21021;-75
2021/11/25 04:45:39;;;;;;;19.40;13.35;;;2.80;99.90;;;;;;2007373;70;21197;-74
2021/11/25 04:48:05;;;;;;;21.37;13.83;;;2.80;99.90;;;;;;2021964;71;21061;-74
2021/11/25 04:50:31;;;;;;;23.85;13.32;;;2.80;99.90;;;;;;2009671;70;21043;-75
2021/11/25 04:52:58;;;;;;;20.40;13.70;;;2.70;99.90;;;;;;2009596;70;21094;-75
2021/11/25 04:55:24;;;;;;;19.42;14.60;;;2.50;99.90;;;;;;2009843;70;21119;-75
2021/11/25 04:57:50;;;;;;;17.32;13.45;;;2.40;99.90;;;;;;2015178;70;21413;-75
2021/11/25 05:00:16;;;;;;;23.70;14.80;;;2.40;99.90;;;;;;2013897;70;21886;-75
2021/11/25 05:02:42;;;;;;;24.95;16.15;;;2.40;99.90;;;;;;2005601;70;21055;-74
2021/11/25 05:05:09;;;;;;;20.75;14.13;;;2.50;99.90;;;;;;2012822;70;21052;-75
2021/11/25 05:07:35;;;;;;;24.05;15.18;;;2.30;99.90;;;;;;2006347;70;21055;-74
2021/11/25 05:10:01;;;;;;;21.75;14.50;;;2.40;99.90;;;;;;2015512;70;21448;-75
2021/11/25 05:12:27;;;;;;;23.02;15.23;;;2.50;99.90;;;;;;2002831;70;21423;-75
2021/11/25 05:14:53;;;;;;;19.07;14.63;;;2.50;99.90;;;;;;2018599;70;21028;-75
2021/11/25 05:17:20;;;;;;;25.50;14.23;;;2.50;99.90;;;;;;2008811;70;21043;-75
2021/11/25 05:19:46;;;;;;;21.95;14.98;;;2.50;99.90;;;;;;2006394;70;21048;-74
2021/11/25 05:22:12;;;;;;;27.10;15.50;;;2.50;99.90;;;;;;1997503;70;21153;-75
2021/11/25 05:24:38;;;;;;;22.55;15.45;;;2.40;99.90;;;;;;2013357;70;21110;-75
2021/11/25 05:27:04;;;;;;;24.98;16.45;;;2.40;99.90;;;;;;2009886;70;21105;-74
2021/11/25 05:29:30;;;;;;;23.27;15.85;;;2.40;99.90;;;;;;2009908;70;21044;-75
2021/11/25 05:31:57;;;;;;;21.95;16.37;;;2.40;99.90;;;;;;2009662;70;21072;-74
2021/11/25 05:34:23;;;;;;;26.10;16.27;;;2.30;99.90;;;;;;2011648;70;21195;-75
2021/11/25 05:36:49;;;;;;;31.45;16.82;;;2.30;99.90;;;;;;2014597;70;21122;-75
2021/11/25 05:39:15;;;;;;;28.40;17.65;;;2.30;99.90;;;;;;2002901;70;21435;-75
2021/11/25 05:41:41;;;;;;;23.32;14.60;;;2.20;99.90;;;;;;2006355;70;21475;-75
2021/11/25 05:44:07;;;;;;;24.07;15.83;;;2.30;99.90;;;;;;2006808;70;21201;-75
2021/11/25 05:46:34;;;;;;;25.20;14.70;;;2.30;99.90;;;;;;2001238;70;21113;-76
2021/11/25 05:49:00;;;;;;;25.72;15.83;;;2.30;99.90;;;;;;2009676;71;21064;-75
2021/11/25 05:51:26;;;;;;;34.92;15.68;;;2.30;99.90;;;;;;2009765;71;21013;-76
2021/11/25 05:53:52;;;;;;;24.90;15.88;;;2.40;99.90;;;;;;2005764;70;21567;-75
2021/11/25 05:56:18;;;;;;;23.15;15.95;;;2.40;99.90;;;;;;2009377;70;21048;-75
2021/11/25 05:58:44;;;;;;;27.22;15.60;;;2.40;99.90;;;;;;2004871;70;21107;-75
2021/11/25 06:01:10;;;;;;;21.85;15.75;;;2.30;99.90;;;;;;2008316;70;21046;-74
2021/11/25 06:03:36;;;;;;;25.20;16.55;;;2.30;99.90;;;;;;2009482;70;21103;-75
2021/11/25 06:06:03;;;;;;;25.15;16.70;;;2.40;99.90;;;;;;2009276;70;21051;-75
2021/11/25 06:08:29;;;;;;;33.13;17.30;;;2.30;99.90;;;;;;2016061;70;21052;-74
2021/11/25 06:10:56;;;;;;;23.10;16.15;;;2.30;99.90;;;;;;2014448;71;21126;-74
2021/11/25 06:13:22;;;;;;;25.77;15.98;;;2.30;99.90;;;;;;2006080;70;21114;-73
2021/11/25 06:15:50;;;;;;;31.15;17.15;;;2.30;99.90;;;;;;2013653;71;21106;-74
2021/11/25 06:18:16;;;;;;;26.48;16.73;;;2.30;99.90;;;;;;2008373;70;21767;-74
2021/11/25 06:20:42;;;;;;;22.80;15.63;;;2.20;99.90;;;;;;2017409;71;21416;-79
2021/11/25 06:23:08;;;;;;;25.17;16.37;;;2.20;99.90;;;;;;2011230;70;21504;-77
2021/11/25 06:25:34;;;;;;;25.50;16.60;;;2.30;99.90;;;;;;2013483;70;21048;-80
2021/11/25 06:28:01;;;;;;;25.57;15.25;;;2.30;99.90;;;;;;2006234;70;21038;-80
2021/11/25 06:30:27;;;;;;;26.75;15.85;;;2.30;99.90;;;;;;2006587;70;21114;-81
2021/11/25 06:32:53;;;;;;;26.85;15.15;;;2.60;99.90;;;;;;2020982;70;21524;-81
2021/11/25 06:35:19;;;;;;;24.20;15.90;;;2.80;99.90;;;;;;2008168;70;21448;-83
2021/11/25 06:37:45;;;;;;;26.85;17.25;;;2.80;99.90;;;;;;2009579;70;21409;-81
2021/11/25 06:40:12;;;;;;;25.62;16.52;;;2.90;99.90;;;;;;2013818;70;21566;-83
2021/11/25 06:42:38;;;;;;;23.38;16.10;;;2.90;99.90;;;;;;2004804;70;21468;-83
2021/11/25 06:45:05;;;;;;;23.10;16.17;;;2.80;99.90;;;;;;2004475;70;21550;-82
2021/11/25 06:47:31;;;;;;;26.37;15.75;;;2.70;99.90;;;;;;2003072;70;21524;-83
2021/11/25 06:49:57;;;;;;;23.62;15.60;;;2.60;99.90;;;;;;2005032;70;21023;-82
2021/11/25 06:52:23;;;;;;;26.27;16.95;;;2.70;99.90;;;;;;2011558;70;21038;-80
2021/11/25 06:54:49;;;;;;;22.55;15.48;;;2.60;99.90;;;;;;2023144;70;21047;-84
2021/11/25 06:57:15;;;;;;;23.62;16.17;;;2.60;99.90;;;;;;2006486;70;21109;-86
2021/11/25 06:59:41;;;;;;;26.73;16.90;;;2.60;99.90;;;;;;2006026;70;21050;-83
2021/11/25 07:02:08;;;;;;;29.27;17.62;;;2.60;99.90;;;;;;2009883;70;21105;-84
2021/11/25 07:04:34;;;;;;;26.02;18.07;;;2.60;99.90;;;;;;2009789;71;21117;-83
2021/11/25 07:07:02;;;;;;;26.02;16.65;;;2.50;99.90;;;;;;2009937;71;21043;-83
2021/11/25 07:09:28;;;;;;;28.45;17.25;;;2.40;99.90;;;;;;2020900;70;21172;-85
2021/11/25 07:11:54;;;;;;;25.43;17.45;;;2.50;99.90;;;;;;1997035;70;21221;-83
2021/11/25 07:14:20;;;;;;;24.20;16.02;;;2.50;99.90;;;;;;2006991;70;21029;-81
2021/11/25 07:16:46;;;;;;;28.83;16.10;;;2.50;99.90;;;;;;2009641;71;21555;-82
2021/11/25 07:19:12;;;;;;;29.07;17.42;;;2.60;99.90;;;;;;2009562;71;21463;-87
2021/11/25 07:21:38;;;;;;;37.03;17.85;;;2.50;99.90;;;;;;2002581;70;21121;-84
2021/11/25 07:24:05;;;;;;;29.80;17.73;;;2.50;99.90;;;;;;2009866;70;21121;-88
2021/11/25 07:26:31;;;;;;;25.45;15.88;;;2.50;99.90;;;;;;2016481;70;21059;-85
2021/11/25 07:28:57;;;;;;;22.67;16.15;;;2.50;99.90;;;;;;2012523;70;21152;-85
2021/11/25 07:31:28;;;;;;;25.43;16.80;;;2.50;99.90;;;;;;2004166;70;21476;-84
2021/11/25 07:33:51;;;;;;;28.42;16.35;;;2.60;99.90;;;;;;2010520;70;21080;-85
2021/11/25 07:36:18;;;;;;;25.30;17.80;;;2.70;99.90;;;;;;2010105;70;21141;-79
2021/11/25 07:38:45;;;;;;;27.42;17.70;;;2.60;99.90;;;;;;2006017;70;21026;-85
2021/11/25 07:41:11;;;;;;;29.10;17.85;;;2.30;99.90;;;;;;2009616;70;21113;-84
2021/11/25 07:43:37;;;;;;;29.30;16.50;;;2.30;99.90;;;;;;2005778;70;21097;-84
2021/11/25 07:46:03;;;;;;;22.90;15.80;;;2.40;99.90;;;;;;2006136;70;21428;-84
2021/11/25 07:48:29;;;;;;;22.93;16.50;;;2.50;99.90;;;;;;2006133;70;21117;-83
2021/11/25 07:50:56;;;;;;;26.85;17.07;;;2.50;99.90;;;;;;2013902;70;21113;-86
2021/11/25 07:53:22;;;;;;;28.65;18.52;;;2.50;99.90;;;;;;2011977;70;21541;-83
2021/11/25 07:55:48;;;;;;;29.55;18.02;;;2.50;99.90;;;;;;2002028;70;21028;-84
2021/11/25 07:58:14;;;;;;;30.00;16.75;;;2.50;99.90;;;;;;2009796;70;21055;-84
2021/11/25 08:00:40;;;;;;;32.00;18.23;;;2.50;99.90;;;;;;2019065;70;21043;-83
2021/11/25 08:03:06;;;;;;;29.05;18.98;;;2.50;99.90;;;;;;2010115;70;21098;-84
2021/11/25 08:05:32;;;;;;;34.95;19.45;;;2.50;99.90;;;;;;2009425;70;21110;-82
2021/11/25 08:07:58;;;;;;;28.70;18.10;;;2.40;99.90;;;;;;2007427;70;21020;-86
2021/11/25 08:10:25;;;;;;;30.37;18.77;;;2.40;99.90;;;;;;2009688;70;21105;-85
2021/11/25 08:12:53;;;;;;;34.05;17.50;;;2.40;99.90;;;;;;2009555;70;21561;-86
2021/11/25 08:15:19;;;;;;;27.82;18.57;;;2.60;99.90;;;;;;2009534;71;21106;-86
2021/11/25 08:17:46;;;;;;;24.57;17.93;;;2.60;99.90;;;;;;1998888;70;21119;-84
2021/11/25 08:20:12;;;;;;;23.87;17.57;;;2.60;99.90;;;;;;2020733;70;21112;-83
2021/11/25 08:22:38;;;;;;;30.92;18.20;;;2.60;99.90;;;;;;2013659;70;21043;-82
2021/11/25 08:25:06;;;;;;;26.00;17.23;;;2.80;99.90;;;;;;2007298;70;21040;-85
2021/11/25 08:27:32;;;;;;;28.55;17.65;;;2.90;99.90;;;;;;2019044;70;21534;-86
2021/11/25 08:29:58;;;;;;;25.88;17.30;;;2.60;99.90;;;;;;2019483;71;21106;-84
2021/11/25 08:32:24;;;;;;;29.27;18.02;;;2.50;99.90;;;;;;2009124;70;21097;-84
2021/11/25 08:34:50;;;;;;;35.88;19.20;;;2.50;99.90;;;;;;2009713;71;21048;-83
2021/11/25 08:37:16;;;;;;;34.45;18.90;;;2.50;99.90;;;;;;2016609;70;21075;-84
2021/11/25 08:39:43;;;;;;;30.52;18.30;;;2.60;99.90;;;;;;2012410;70;21125;-84
2021/11/25 08:42:09;;;;;;;27.35;17.30;;;2.70;99.90;;;;;;2009209;70;21051;-84
2021/11/25 08:44:35;;;;;;;47.78;19.98;;;2.70;99.90;;;;;;2005467;70;21116;-85
2021/11/25 08:47:01;;;;;;;26.27;18.25;;;2.70;99.90;;;;;;2014470;70;21117;-86
2021/11/25 08:49:29;;;;;;;32.45;19.32;;;2.60;99.90;;;;;;2017898;71;21106;-83
2021/11/25 08:51:55;;;;;;;32.40;17.42;;;2.70;99.90;;;;;;2012515;70;21051;-85
2021/11/25 08:54:22;;;;;;;28.32;17.92;;;2.70;99.90;;;;;;1998720;70;21100;-84
2021/11/25 08:56:49;;;;;;;37.93;18.52;;;2.90;99.90;;;;;;2009446;70;21109;-86
2021/11/25 08:59:15;;;;;;;31.85;17.75;;;2.90;99.90;;;;;;2009732;71;21113;-84
2021/11/25 09:01:41;;;;;;;25.97;17.32;;;2.90;99.90;;;;;;2010947;70;21043;-83
2021/11/25 09:04:07;;;;;;;30.48;17.20;;;2.90;99.90;;;;;;2010863;70;21075;-83
2021/11/25 09:06:34;;;;;;;31.97;17.42;;;2.90;99.90;;;;;;2006347;70;21052;-84
2021/11/25 09:09:01;;;;;;;24.65;16.73;;;2.80;99.90;;;;;;2005642;70;21047;-85
2021/11/25 09:11:27;;;;;;;27.45;16.95;;;2.80;99.90;;;;;;1998256;70;21160;-85
2021/11/25 09:13:53;;;;;;;27.55;17.90;;;2.80;99.90;;;;;;2009944;71;21036;-84
2021/11/25 09:16:19;;;;;;;28.07;18.92;;;2.60;99.90;;;;;;2003226;70;21117;-84
2021/11/25 09:18:45;;;;;;;32.10;17.77;;;2.60;99.90;;;;;;2010368;70;21064;-82
2021/11/25 09:21:11;;;;;;;26.42;16.60;;;2.70;99.90;;;;;;2010173;70;21392;-82
2021/11/25 09:23:38;;;;;;;40.63;17.87;;;2.80;99.90;;;;;;2010220;70;21497;-84
2021/11/25 09:26:04;;;;;;;29.87;17.07;;;2.90;99.90;;;;;;2008016;70;21488;-84
2021/11/25 09:28:30;;;;;;;32.67;17.57;;;3.10;99.90;;;;;;2010036;71;21439;-84
2021/11/25 09:30:56;;;;;;;27.27;17.87;;;3.00;99.90;;;;;;2006237;70;21137;-83
2021/11/25 09:33:22;;;;;;;37.08;17.67;;;3.00;99.90;;;;;;2006508;70;21159;-82
2021/11/25 09:35:48;;;;;;;28.00;18.32;;;3.00;99.90;;;;;;2003854;70;21051;-85
2021/11/25 09:38:14;;;;;;;27.07;16.80;;;3.00;99.90;;;;;;2012710;70;21024;-81
2021/11/25 09:40:42;;;;;;;29.65;16.80;;;3.00;99.90;;;;;;2003535;70;21038;-86
2021/11/25 09:43:10;;;;;;;34.45;17.30;;;3.00;99.90;;;;;;2006666;70;21526;-85
2021/11/25 09:45:37;;;;;;;30.05;17.23;;;2.90;99.90;;;;;;2013407;70;21099;-85
2021/11/25 09:48:03;;;;;;;26.95;15.88;;;3.00;99.90;;;;;;2003427;70;21097;-85
2021/11/25 09:50:30;;;;;;;28.42;17.05;;;3.20;99.90;;;;;;2021567;70;21051;-84
2021/11/25 09:52:58;;;;;;;29.77;18.15;;;3.20;99.90;;;;;;2007127;70;21056;-85
2021/11/25 09:55:24;;;;;;;27.50;16.48;;;3.20;99.90;;;;;;2010089;70;21077;-83
2021/11/25 09:57:51;;;;;;;26.93;17.80;;;3.10;99.90;;;;;;2014699;70;21069;-79
2021/11/25 10:00:17;;;;;;;25.80;16.77;;;3.10;99.90;;;;;;2008928;69;21090;-83
2021/11/25 10:02:43;;;;;;;31.75;18.50;;;3.20;99.90;;;;;;1999452;70;21126;-82
2021/11/25 10:05:09;;;;;;;29.92;17.55;;;3.20;99.90;;;;;;2021018;70;21124;-77
2021/11/25 10:07:36;;;;;;;31.90;22.27;;;3.20;99.90;;;;;;2011770;70;21040;-77
2021/11/25 10:10:04;;;;;;;27.22;17.62;;;3.10;99.90;;;;;;2003965;70;21433;-78
2021/11/25 10:12:37;;;;;;;25.43;18.02;;;3.20;99.90;;;;;;2009059;70;21023;-78
2021/11/25 10:15:03;;;;;;;35.03;17.77;;;3.30;99.90;;;;;;2007763;70;21121;-80
2021/11/25 10:17:29;;;;;;;34.63;17.10;;;3.30;99.90;;;;;;2009975;70;21047;-78
2021/11/25 10:19:55;;;;;;;35.08;17.73;;;3.30;99.90;;;;;;2009686;70;21047;-79
2021/11/25 10:22:21;;;;;;;24.77;17.30;;;3.20;99.90;;;;;;2005962;70;21153;-79
2021/11/25 10:24:48;;;;;;;30.95;18.17;;;3.20;99.90;;;;;;2019437;70;21062;-80
2021/11/25 10:27:14;;;;;;;32.25;17.55;;;3.20;99.90;;;;;;2009938;71;21040;-78
2021/11/25 10:29:40;;;;;;;31.37;16.90;;;3.30;99.90;;;;;;2007159;70;21034;-79
2021/11/25 10:32:06;;;;;;;27.13;17.40;;;3.40;99.90;;;;;;2008498;70;21051;-78
2021/11/25 10:34:38;;;;;;;26.33;17.73;;;3.40;99.90;;;;;;2009467;70;21109;-78
2021/11/25 10:39:34;;;;;;;25.88;17.48;;;3.50;99.90;;;;;;1998567;70;21271;-78
2021/11/25 10:41:56;;;;;;;23.47;16.20;;;3.50;99.90;;;;;;1998660;70;21067;-78
2021/11/25 10:44:23;;;;;;;33.00;17.98;;;3.50;99.90;;;;;;2011062;70;21044;-78
2021/11/25 10:46:51;;;;;;;28.62;18.67;;;3.40;99.90;;;;;;2009674;71;21052;-79
2021/11/25 10:49:17;;;;;;;31.42;17.90;;;3.30;99.90;;;;;;2008707;70;21146;-78
2021/11/25 10:51:44;;;;;;;29.52;18.57;;;3.20;99.90;;;;;;2002941;70;21060;-77
2021/11/25 10:54:11;;;;;;;33.53;19.62;;;3.10;99.90;;;;;;2009659;71;21445;-78
2021/11/25 10:56:37;;;;;;;30.57;18.55;;;3.10;99.90;;;;;;1984468;71;21198;-78
2021/11/25 10:59:03;;;;;;;27.95;17.25;;;3.20;99.90;;;;;;2010100;70;21047;-78
2021/11/25 11:01:30;;;;;;;28.55;17.57;;;3.40;99.90;;;;;;2009460;71;21505;-78
2021/11/25 11:04:01;;;;;;;27.37;17.75;;;3.50;99.90;;;;;;2003568;70;21032;-77
2021/11/25 11:06:24;;;;;;;27.25;16.95;;;3.50;99.90;;;;;;2003268;70;21076;-79
2021/11/25 11:08:50;;;;;;;27.90;18.00;;;3.50;99.90;;;;;;2014406;70;21129;-77
2021/11/25 11:11:17;;;;;;;29.82;18.27;;;3.40;99.90;;;;;;2021321;70;21116;-78
2021/11/25 11:13:49;;;;;;;26.07;17.73;;;3.40;99.90;;;;;;2008742;70;21470;-79
2021/11/25 11:21:15;;;;;;;29.10;17.20;;;3.70;99.90;;;;;;2009412;70;21069;-78
2021/11/25 11:23:41;;;;;;;26.25;16.90;;;3.80;99.90;;;;;;2010208;70;21058;-78
2021/11/25 11:26:08;;;;;;;29.02;17.80;;;3.80;99.90;;;;;;2007820;70;21450;-78
2021/11/25 11:28:35;;;;;;;28.38;17.95;;;3.70;99.90;;;;;;2009644;71;21529;-78
2021/11/25 11:31:01;;;;;;;23.65;16.67;;;3.60;99.90;;;;;;2006146;70;21133;-78
2021/11/25 11:33:27;;;;;;;27.05;17.67;;;3.80;99.90;;;;;;2001939;70;21105;-80
2021/11/25 11:35:53;;;;;;;32.42;17.00;;;4.00;99.90;;;;;;2009429;70;21044;-78
2021/11/25 11:38:19;;;;;;;29.98;16.60;;;4.00;99.90;;;;;;2009596;70;21055;-78
2021/11/25 11:40:46;;;;;;;29.25;18.45;;;3.80;99.90;;;;;;2013683;70;21121;-79
2021/11/25 11:43:12;;;;;;;26.10;17.57;;;3.50;99.90;;;;;;2011576;70;21024;-80
2021/11/25 11:45:38;;;;;;;35.60;18.73;;;3.70;99.90;;;;;;1999723;70;21106;-78
2021/11/25 11:48:04;;;;;;;29.98;19.27;;;3.70;99.90;;;;;;2008666;70;21113;-78
2021/11/25 11:50:31;;;;;;;30.08;18.15;;;3.80;99.90;;;;;;2025661;70;21072;-78
2021/11/25 11:52:57;;;;;;;25.32;16.80;;;3.70;99.90;;;;;;2009393;70;21060;-78
2021/11/25 11:55:23;;;;;;;31.20;19.32;;;3.90;99.90;;;;;;1998540;70;21017;-80
2021/11/25 11:57:49;;;;;;;28.00;17.62;;;3.90;99.90;;;;;;2009520;71;21040;-80
2021/11/25 12:00:15;;;;;;;24.65;17.52;;;4.00;99.90;;;;;;2009529;71;21032;-79
2021/11/25 12:02:41;;;;;;;26.45;17.80;;;4.10;99.90;;;;;;2009471;70;21105;-80
2021/11/25 12:05:07;;;;;;;30.77;19.00;;;4.20;99.90;;;;;;2012475;70;21094;-78
2021/11/25 12:07:33;;;;;;;27.10;18.40;;;4.00;99.90;;;;;;2010486;70;21035;-78
2021/11/25 12:10:00;;;;;;;30.00;19.23;;;4.00;99.90;;;;;;2007857;70;21060;-79
2021/11/25 12:12:26;;;;;;;27.35;17.95;;;4.00;99.90;;;;;;2009481;71;21059;-79
2021/11/25 12:14:52;;;;;;;27.13;18.07;;;4.00;99.90;;;;;;2008715;70;21113;-80
2021/11/25 12:17:18;;;;;;;32.33;18.67;;;4.10;99.90;;;;;;1999055;70;21570;-79
2021/11/25 12:19:44;;;;;;;37.78;18.67;;;4.00;99.90;;;;;;2019597;70;21512;-80
2021/11/25 12:22:10;;;;;;;31.60;18.27;;;3.90;99.90;;;;;;2020843;70;21451;-79
2021/11/25 12:24:36;;;;;;;28.73;18.23;;;3.80;99.90;;;;;;2005891;70;21433;-78
2021/11/25 12:27:05;;;;;;;26.57;16.90;;;4.10;99.90;;;;;;1975819;70;21581;-78
2021/11/25 12:29:30;;;;;;;30.92;18.87;;;4.20;99.90;;;;;;2008721;70;21081;-79
2021/11/25 12:31:56;;;;;;;30.08;18.23;;;4.10;99.90;;;;;;2009455;71;21121;-78
2021/11/25 12:34:22;;;;;;;32.58;18.35;;;4.10;99.90;;;;;;1977565;70;21125;-79
2021/11/25 12:36:49;;;;;;;36.83;17.87;;;4.10;99.90;;;;;;1970447;72;21440;-82
2021/11/25 12:39:16;;;;;;;30.82;18.77;;;4.00;99.90;;;;;;1973653;72;21096;-79